Antonia, Missouri
Current Conditions -  °F | °C
As of 12:53 PM on Thursday 27 Nov 2014 (Local Time) from KCPS Reporting Station
Broken Clouds Broken Clouds  
Wind Chill: 23°   Ceiling: 3500
Heat Index: 33°   Visibility: 10mi
Dew Point: 21°   Wind: 15mph
Humidity: 61%   Direction: 290°WNW
Pressure: 30.47"   Gusts: NA
Location:  38.3874°N, 90.4319°W
Report Text: KCPS 271853Z 29013KT 10SM BKN035 01/M06 A3047 RMK AO2 SLP322 T00061061
Loading
Personal Weather Stations






























Interactive Weather Map New forecast layout! Learn more

10-Day Weather Forecast

Advertisements
Track Severe Weather on mobile